Bluenose II — CYJZ — position and weather

sailwx.info

Track history (hours):
 
Tides and Currents Weather Stations Pressure Air Temp Water Temp Dewpoint Dewpoint Depression Visibility Wind Speed Wind Dir Waves Ship Positions

Bluenose II (Canada)

Ship's website: http://www.schoonerbluenose2.ca/

Last reported at 2019-Aug-12 17:32 UTC. Time now 2019-Aug-24 19:54 UTC.
Position N 42°08' W 083°07'.
Warning: this ship's position is 12 days out of date.

Length 55 m; draft 5 m.

Type: Sailing vessel. MMSI: 316245000.

Date/timePositionNaut miles runAvg speedWind from/ knotsBaromVisibWave heightAir tempDewpointWater temp
2019-Aug-12 17:32N 42°08' W 083°07'1 9.6
2019-Aug-12 17:28N 42°09' W 083°08'4 9.0
2019-Aug-12 17:00N 42°13' W 083°08'4 8.5
2019-Aug-12 16:30N 42°17' W 083°06'4 8.6
2019-Aug-12 16:00N 42°20' W 083°01'5 9.3
2019-Aug-12 15:26N 42°22' W 082°55'  
2019-Aug-07 13:10N 44°49' W 082°50'1 8.0
2019-Aug-07 13:00N 44°50' W 082°51'17 8.1
2019-Aug-07 10:50N 45°07' W 082°59'5 7.9
2019-Aug-07 10:08N 45°12' W 083°01'1 7.9
2019-Aug-07 09:58N 45°13' W 083°02'4 7.8
2019-Aug-07 09:30N 45°16' W 083°04'4 7.9
2019-Aug-07 09:00N 45°20' W 083°06'4 7.0
2019-Aug-07 08:24N 45°21' W 083°11'3 7.5
2019-Aug-07 08:00N 45°22' W 083°16'4 7.6
2019-Aug-07 07:30N 45°23' W 083°21'4 7.6
2019-Aug-07 06:59N 45°23' W 083°26'4 7.4
2019-Aug-07 06:30N 45°24' W 083°31'4 7.6
2019-Aug-07 06:00N 45°26' W 083°36'4 7.7
2019-Aug-07 05:30N 45°28' W 083°41'4 7.8
2019-Aug-07 05:00N 45°30' W 083°46'4 7.9
2019-Aug-07 04:30N 45°31' W 083°51'5 7.9
2019-Aug-07 03:56N 45°33' W 083°57'3 8.0
2019-Aug-07 03:30N 45°35' W 084°01'4 7.7
2019-Aug-07 03:00N 45°37' W 084°06'4 8.1
2019-Aug-07 02:30N 45°39' W 084°11'4 8.3
2019-Aug-07 02:00N 45°41' W 084°16'4 7.8
2019-Aug-07 01:30N 45°41' W 084°22'4 8.4
2019-Aug-07 01:01N 45°42' W 084°28'4 8.2
2019-Aug-07 00:30N 45°44' W 084°33'4 8.4
2019-Aug-07 00:00N 45°46' W 084°38'4 8.3
2019-Aug-06 23:30N 45°49' W 084°43'4 8.5
2019-Aug-06 22:59N 45°49' W 084°49'4 8.2
2019-Aug-06 22:30N 45°49' W 084°54'4 8.1
2019-Aug-06 22:00N 45°50' W 085°00'4 7.6
2019-Aug-06 21:30N 45°50' W 085°06'3 6.3
2019-Aug-06 21:00N 45°47' W 085°09'4 6.9
2019-Aug-06 20:28N 45°44' W 085°11'1 2.7
2019-Aug-06 20:00N 45°43' W 085°12'  
Track history (hours):
 
Tides and Currents Weather Stations Pressure Air Temp Water Temp Dewpoint Dewpoint Depression Visibility Wind Speed Wind Dir Waves Ship Positions

Bluenose II (Canada)

Ship's website: http://www.schoonerbluenose2.ca/

Last reported at 2019-Aug-12 17:32 UTC. Time now 2019-Aug-24 19:54 UTC.
Position N 42°08' W 083°07'.
Warning: this ship's position is 12 days out of date.

Length 55 m; draft 5 m.

Type: Sailing vessel. MMSI: 316245000.

Date/timePositionNaut miles runAvg speedWind from/ knotsBaromVisibWave heightAir tempDewpointWater temp
2019-Aug-12 17:32N 42°08' W 083°07'1 9.6
2019-Aug-12 17:28N 42°09' W 083°08'4 9.0
2019-Aug-12 17:00N 42°13' W 083°08'4 8.5
2019-Aug-12 16:30N 42°17' W 083°06'4 8.6
2019-Aug-12 16:00N 42°20' W 083°01'5 9.3
2019-Aug-12 15:26N 42°22' W 082°55'  
2019-Aug-07 13:10N 44°49' W 082°50'1 8.0
2019-Aug-07 13:00N 44°50' W 082°51'17 8.1
2019-Aug-07 10:50N 45°07' W 082°59'5 7.9
2019-Aug-07 10:08N 45°12' W 083°01'1 7.9
2019-Aug-07 09:58N 45°13' W 083°02'4 7.8
2019-Aug-07 09:30N 45°16' W 083°04'4 7.9
2019-Aug-07 09:00N 45°20' W 083°06'4 7.0
2019-Aug-07 08:24N 45°21' W 083°11'3 7.5
2019-Aug-07 08:00N 45°22' W 083°16'4 7.6
2019-Aug-07 07:30N 45°23' W 083°21'4 7.6
2019-Aug-07 06:59N 45°23' W 083°26'4 7.4
2019-Aug-07 06:30N 45°24' W 083°31'4 7.6
2019-Aug-07 06:00N 45°26' W 083°36'4 7.7
2019-Aug-07 05:30N 45°28' W 083°41'4 7.8
2019-Aug-07 05:00N 45°30' W 083°46'4 7.9
2019-Aug-07 04:30N 45°31' W 083°51'5 7.9
2019-Aug-07 03:56N 45°33' W 083°57'3 8.0
2019-Aug-07 03:30N 45°35' W 084°01'4 7.7
2019-Aug-07 03:00N 45°37' W 084°06'4 8.1
2019-Aug-07 02:30N 45°39' W 084°11'4 8.3
2019-Aug-07 02:00N 45°41' W 084°16'4 7.8
2019-Aug-07 01:30N 45°41' W 084°22'4 8.4
2019-Aug-07 01:01N 45°42' W 084°28'4 8.2
2019-Aug-07 00:30N 45°44' W 084°33'4 8.4
2019-Aug-07 00:00N 45°46' W 084°38'4 8.3
2019-Aug-06 23:30N 45°49' W 084°43'4 8.5
2019-Aug-06 22:59N 45°49' W 084°49'4 8.2
2019-Aug-06 22:30N 45°49' W 084°54'4 8.1
2019-Aug-06 22:00N 45°50' W 085°00'4 7.6
2019-Aug-06 21:30N 45°50' W 085°06'3 6.3
2019-Aug-06 21:00N 45°47' W 085°09'4 6.9
2019-Aug-06 20:28N 45°44' W 085°11'1 2.7
2019-Aug-06 20:00N 45°43' W 085°12'  

Dump ship's entire track history